Terminal Aerodrome Forecast
Issued by NWS

Home | Current Version | Previous Version | Text Only | Print | Product List | Glossary On
Versions: 1 2 3 4 5 6 7 8 9 10 11 12 13 14 15 16
000
FTUS46 KSEW 252300
TAFCLM
TAF
KCLM 252320Z 2600/2624 32007KT P6SM FEW035
     FM260300 29009KT P6SM SCT050
     FM260900 28005KT P6SM SCT015
     FM261100 26004KT P6SM BKN010
     FM261900 VRB04KT P6SM FEW025=

USA.gov is the U.S. government's official web portal to all federal, state and local government web resources and services.